Time;durP1;ratioP1;P1;durP2;ratioP2;P2;SDS_P1;SDS_P2;PMS_P1;PMS_P2;Temp;Humidity;BMP_temperature;BMP_pressure;BME280_temperature;BME280_humidity;BME280_pressure;Samples;Min_cycle;Max_cycle;Signal;HPM_P1;HPM_P2
2022/09/07 00:00:22;;;;;;;1.58;1.48;;;;;;;;;;5036511;28;20071;-61
2022/09/07 00:02:48;;;;;;;2.08;1.40;;;;;;;;;;5036384;28;20017;-62
2022/09/07 00:05:13;;;;;;;2.05;1.65;;;;;;;;;;5036104;28;20393;-62
2022/09/07 00:07:39;;;;;;;2.15;1.60;;;;;;;;;;5036367;28;20013;-62
2022/09/07 00:10:04;;;;;;;2.30;1.65;;;;;;;;;;5051440;28;20026;-61
2022/09/07 00:12:29;;;;;;;3.08;1.80;;;;;;;;;;5036296;28;20026;-61
2022/09/07 00:14:55;;;;;;;2.70;1.70;;;;;;;;;;5036470;28;20041;-61
2022/09/07 00:17:20;;;;;;;2.85;1.48;;;;;;;;;;5036219;28;20052;-63
2022/09/07 00:19:47;;;;;;;2.10;1.30;;;;;;;;;;5036130;28;20038;-62
2022/09/07 00:22:12;;;;;;;1.92;1.48;;;;;;;;;;5036006;28;20029;-62
2022/09/07 00:24:37;;;;;;;3.40;1.70;;;;;;;;;;5035754;28;20025;-62
2022/09/07 00:27:03;;;;;;;4.20;2.00;;;;;;;;;;5036007;28;20049;-62
2022/09/07 00:29:28;;;;;;;2.70;1.90;;;;;;;;;;5035979;28;20030;-61
2022/09/07 00:31:54;;;;;;;1.80;1.70;;;;;;;;;;5035921;28;20484;-61
2022/09/07 00:34:19;;;;;;;3.67;1.67;;;;;;;;;;5035583;28;20477;-62
2022/09/07 00:36:44;;;;;;;5.70;1.70;;;;;;;;;;5035529;28;20380;-61
2022/09/07 00:39:10;;;;;;;3.22;1.80;;;;;;;;;;5035520;28;20082;-61
2022/09/07 00:41:35;;;;;;;2.28;1.38;;;;;;;;;;5035395;28;20053;-62
2022/09/07 00:44:20;;;;;;;1.70;1.60;;;;;;;;;;5035987;28;20034;-62
2022/09/07 00:46:45;;;;;;;5.40;1.73;;;;;;;;;;5035618;28;20030;-62
2022/09/07 00:49:13;;;;;;;2.72;1.70;;;;;;;;;;5035303;28;20039;-62
2022/09/07 00:51:40;;;;;;;3.90;1.90;;;;;;;;;;5035535;28;20033;-61
2022/09/07 00:54:16;;;;;;;2.10;1.50;;;;;;;;;;5035807;28;20084;-62
2022/09/07 00:56:42;;;;;;;2.15;1.80;;;;;;;;;;5035440;28;20032;-61
2022/09/07 00:59:09;;;;;;;2.05;1.73;;;;;;;;;;5035134;28;20013;-61
2022/09/07 01:01:36;;;;;;;3.25;1.90;;;;;;;;;;5035270;28;20025;-62
2022/09/07 01:04:02;;;;;;;3.80;1.60;;;;;;;;;;5035314;28;20018;-62
2022/09/07 01:06:32;;;;;;;3.75;1.80;;;;;;;;;;5034286;28;20053;-61
2022/09/07 01:09:06;;;;;;;2.65;2.00;;;;;;;;;;5035515;28;20057;-62
2022/09/07 01:11:33;;;;;;;2.55;1.63;;;;;;;;;;5035162;28;20032;-62
2022/09/07 01:13:59;;;;;;;2.60;1.85;;;;;;;;;;5034859;28;20021;-62
2022/09/07 01:16:43;;;;;;;1.67;1.58;;;;;;;;;;5034807;28;20072;-62
2022/09/07 01:19:27;;;;;;;2.17;1.70;;;;;;;;;;5035270;28;20033;-62
2022/09/07 01:21:58;;;;;;;2.33;1.95;;;;;;;;;;5033395;28;20033;-62
2022/09/07 01:24:26;;;;;;;3.15;2.03;;;;;;;;;;5033749;28;20116;-61
2022/09/07 01:27:05;;;;;;;1.80;1.70;;;;;;;;;;5034900;28;20104;-62
2022/09/07 01:29:37;;;;;;;1.70;1.60;;;;;;;;;;5034543;28;20026;-61
2022/09/07 01:32:12;;;;;;;3.10;1.85;;;;;;;;;;5034826;28;20530;-62
2022/09/07 01:34:39;;;;;;;1.90;1.80;;;;;;;;;;5033517;28;20068;-61
2022/09/07 01:37:13;;;;;;;3.05;1.52;;;;;;;;;;5051301;22;20063;-65
2022/09/07 01:39:52;;;;;;;4.47;1.85;;;;;;;;;;5048791;22;20056;-65
2022/09/07 01:42:20;;;;;;;2.85;1.80;;;;;;;;;;5054191;28;20043;-65
2022/09/07 01:44:48;;;;;;;4.05;1.95;;;;;;;;;;5055029;28;20360;-65
2022/09/07 01:47:14;;;;;;;2.40;1.73;;;;;;;;;;5054200;28;20060;-65
2022/09/07 01:49:51;;;;;;;3.97;2.00;;;;;;;;;;5054402;28;20024;-65
2022/09/07 01:52:20;;;;;;;3.42;1.90;;;;;;;;;;5054328;28;20033;-65
2022/09/07 01:54:47;;;;;;;2.28;1.60;;;;;;;;;;5054327;28;20025;-65
2022/09/07 01:57:14;;;;;;;1.88;1.77;;;;;;;;;;5054024;28;20385;-65
2022/09/07 01:59:45;;;;;;;3.13;1.92;;;;;;;;;;5053933;28;20028;-65
2022/09/07 02:02:22;;;;;;;2.28;1.98;;;;;;;;;;5037101;28;20032;-65
2022/09/07 02:04:51;;;;;;;3.45;2.25;;;;;;;;;;5053867;28;20021;-65
2022/09/07 02:07:19;;;;;;;2.42;2.20;;;;;;;;;;5054139;28;20048;-65
2022/09/07 02:09:48;;;;;;;2.85;1.90;;;;;;;;;;5052509;28;20029;-65
2022/09/07 02:12:18;;;;;;;3.95;2.25;;;;;;;;;;5053776;28;20036;-65
2022/09/07 02:14:48;;;;;;;2.15;1.95;;;;;;;;;;5054041;28;20025;-65
2022/09/07 02:17:17;;;;;;;2.40;2.15;;;;;;;;;;5053902;28;20027;-65
2022/09/07 02:20:03;;;;;;;3.65;2.08;;;;;;;;;;5053625;28;20036;-65
2022/09/07 02:22:31;;;;;;;3.22;2.55;;;;;;;;;;5053275;28;20037;-65
2022/09/07 02:24:58;;;;;;;4.32;3.50;;;;;;;;;;5053813;28;20013;-65
2022/09/07 02:27:27;;;;;;;6.38;3.53;;;;;;;;;;5053570;28;20029;-65
2022/09/07 02:29:53;;;;;;;4.40;3.10;;;;;;;;;;5053789;28;20025;-65
2022/09/07 02:32:18;;;;;;;3.28;2.83;;;;;;;;;;5053745;28;20043;-65
2022/09/07 02:34:45;;;;;;;4.38;3.10;;;;;;;;;;5054024;28;20067;-65
2022/09/07 02:37:12;;;;;;;4.05;2.90;;;;;;;;;;5053358;28;20108;-65
2022/09/07 02:42:32;;;;;;;3.25;2.80;;;;;;;;;;5051952;28;20037;-61
2022/09/07 02:44:57;;;;;;;4.43;2.70;;;;;;;;;;5052089;28;20433;-62
2022/09/07 02:47:42;;;;;;;4.78;3.10;;;;;;;;;;5053365;28;20056;-62
2022/09/07 02:50:24;;;;;;;3.88;2.78;;;;;;;;;;5053325;28;20059;-61
2022/09/07 02:52:59;;;;;;;3.22;2.80;;;;;;;;;;5053292;28;20040;-61
2022/09/07 02:55:30;;;;;;;3.15;2.67;;;;;;;;;;5053579;28;20040;-62
2022/09/07 02:58:02;;;;;;;8.63;3.22;;;;;;;;;;5053556;28;20036;-61
2022/09/07 03:00:30;;;;;;;3.17;2.42;;;;;;;;;;5053780;28;20040;-61
2022/09/07 03:03:14;;;;;;;3.92;2.67;;;;;;;;;;5053701;28;20013;-61
2022/09/07 03:05:58;;;;;;;4.95;2.80;;;;;;;;;;5053176;28;20021;-62
2022/09/07 03:08:30;;;;;;;3.17;2.88;;;;;;;;;;5053433;28;20088;-62
2022/09/07 03:10:56;;;;;;;3.33;2.50;;;;;;;;;;5053689;28;20166;-61
2022/09/07 03:13:23;;;;;;;5.40;2.53;;;;;;;;;;5053686;28;20045;-62
2022/09/07 03:15:48;;;;;;;4.60;2.50;;;;;;;;;;5051846;28;20029;-61
2022/09/07 03:18:13;;;;;;;3.08;2.60;;;;;;;;;;5051825;28;20483;-61
2022/09/07 03:20:39;;;;;;;3.05;2.70;;;;;;;;;;5053045;28;20388;-62
2022/09/07 03:23:04;;;;;;;3.25;2.55;;;;;;;;;;5053536;28;20147;-62
2022/09/07 03:25:30;;;;;;;3.00;2.60;;;;;;;;;;5053782;28;20037;-62
2022/09/07 03:27:55;;;;;;;2.85;2.53;;;;;;;;;;5053000;28;20032;-62
2022/09/07 03:30:20;;;;;;;3.75;2.50;;;;;;;;;;5055217;28;20025;-61
2022/09/07 03:32:46;;;;;;;4.45;3.10;;;;;;;;;;5038925;28;20108;-62
2022/09/07 03:35:29;;;;;;;3.33;2.85;;;;;;;;;;5077349;22;20144;-62
2022/09/07 03:37:54;;;;;;;5.95;2.75;;;;;;;;;;5054368;28;20053;-61
2022/09/07 03:40:20;;;;;;;4.30;2.80;;;;;;;;;;5057037;28;20078;-62
2022/09/07 03:42:49;;;;;;;4.15;2.45;;;;;;;;;;5038510;28;20470;-61
2022/09/07 03:45:14;;;;;;;3.92;2.92;;;;;;;;;;5056785;28;20036;-62
2022/09/07 03:47:39;;;;;;;3.72;2.92;;;;;;;;;;5056698;28;20025;-61
2022/09/07 03:50:05;;;;;;;4.00;2.78;;;;;;;;;;5055203;28;20029;-62
2022/09/07 03:52:31;;;;;;;3.88;2.90;;;;;;;;;;5056652;28;20024;-61
2022/09/07 03:54:56;;;;;;;5.65;3.03;;;;;;;;;;5038670;28;20029;-62
2022/09/07 03:57:22;;;;;;;5.93;3.00;;;;;;;;;;5056291;28;20523;-61
2022/09/07 03:59:48;;;;;;;5.00;2.85;;;;;;;;;;5056505;28;20029;-61
2022/09/07 04:02:14;;;;;;;4.82;2.47;;;;;;;;;;5056374;28;20041;-61
2022/09/07 04:04:40;;;;;;;4.00;3.10;;;;;;;;;;5056421;28;20029;-61
2022/09/07 04:07:06;;;;;;;4.32;2.88;;;;;;;;;;5038402;28;20147;-62
2022/09/07 04:09:31;;;;;;;4.40;3.30;;;;;;;;;;5056307;28;20468;-61
2022/09/07 04:11:56;;;;;;;5.75;3.45;;;;;;;;;;5055969;28;20029;-61
2022/09/07 04:14:22;;;;;;;5.35;2.97;;;;;;;;;;5054810;28;20103;-62
2022/09/07 04:16:47;;;;;;;5.32;3.05;;;;;;;;;;5056484;28;20108;-61
2022/09/07 04:19:13;;;;;;;6.70;2.97;;;;;;;;;;5056172;28;20361;-62
2022/09/07 04:21:38;;;;;;;3.88;3.30;;;;;;;;;;5055794;28;20127;-62
2022/09/07 04:24:04;;;;;;;4.30;2.78;;;;;;;;;;5055694;28;20029;-62
2022/09/07 04:26:31;;;;;;;3.72;2.75;;;;;;;;;;5055752;28;20032;-62
2022/09/07 04:28:56;;;;;;;5.20;2.90;;;;;;;;;;5055667;28;20036;-62
2022/09/07 04:31:22;;;;;;;4.55;3.10;;;;;;;;;;5056171;28;20021;-61
2022/09/07 04:33:48;;;;;;;5.32;3.40;;;;;;;;;;5055870;28;20124;-61
2022/09/07 04:36:14;;;;;;;5.72;3.45;;;;;;;;;;5037887;28;20455;-65
2022/09/07 04:38:40;;;;;;;4.85;2.95;;;;;;;;;;5056064;28;20033;-65
2022/09/07 04:41:08;;;;;;;7.40;2.97;;;;;;;;;;5054844;28;20037;-65
2022/09/07 04:43:33;;;;;;;3.25;2.95;;;;;;;;;;5055464;28;20453;-65
2022/09/07 04:46:06;;;;;;;5.75;3.20;;;;;;;;;;5055271;28;20059;-65
2022/09/07 04:48:31;;;;;;;3.38;2.90;;;;;;;;;;5037387;28;20062;-65
2022/09/07 04:51:04;;;;;;;5.30;3.00;;;;;;;;;;5037801;28;20020;-65
2022/09/07 04:53:30;;;;;;;6.15;3.20;;;;;;;;;;5037361;28;20037;-65
2022/09/07 04:55:56;;;;;;;6.00;3.42;;;;;;;;;;5055413;28;20025;-65
2022/09/07 04:58:22;;;;;;;5.80;3.03;;;;;;;;;;5055111;28;20029;-65
2022/09/07 05:00:47;;;;;;;5.45;3.03;;;;;;;;;;5055339;28;20021;-65
2022/09/07 05:03:13;;;;;;;4.75;3.40;;;;;;;;;;5055247;28;20033;-65
2022/09/07 05:05:38;;;;;;;5.28;3.00;;;;;;;;;;5055534;28;20025;-65
2022/09/07 05:08:03;;;;;;;5.63;3.58;;;;;;;;;;5054898;28;20082;-65
2022/09/07 05:10:29;;;;;;;5.80;2.88;;;;;;;;;;5055163;28;20016;-65
2022/09/07 05:12:54;;;;;;;5.90;3.67;;;;;;;;;;5036973;28;20041;-65
2022/09/07 05:15:19;;;;;;;4.65;3.60;;;;;;;;;;5055089;28;20021;-65
2022/09/07 05:17:45;;;;;;;5.00;3.35;;;;;;;;;;5055603;28;20360;-65
2022/09/07 05:20:10;;;;;;;5.20;3.30;;;;;;;;;;5054993;28;20025;-65
2022/09/07 05:22:39;;;;;;;7.05;3.30;;;;;;;;;;5054853;28;20029;-65
2022/09/07 05:25:05;;;;;;;5.05;3.63;;;;;;;;;;5054892;28;20021;-65
2022/09/07 05:27:30;;;;;;;5.57;3.67;;;;;;;;;;5054618;28;20028;-65
2022/09/07 05:29:56;;;;;;;5.55;3.75;;;;;;;;;;5068301;22;20423;-65
2022/09/07 05:32:21;;;;;;;8.82;3.92;;;;;;;;;;5054993;28;20041;-65
2022/09/07 05:34:47;;;;;;;9.10;4.32;;;;;;;;;;5054982;28;20112;-65
2022/09/07 05:37:12;;;;;;;5.88;3.95;;;;;;;;;;5054393;28;20515;-65
2022/09/07 05:39:37;;;;;;;9.38;4.20;;;;;;;;;;5054359;28;20021;-65
2022/09/07 05:42:03;;;;;;;9.75;4.00;;;;;;;;;;5036750;28;20059;-65
2022/09/07 05:44:30;;;;;;;7.72;4.05;;;;;;;;;;5054533;28;20071;-65
2022/09/07 05:46:56;;;;;;;7.28;3.92;;;;;;;;;;5054509;28;20089;-65
2022/09/07 05:49:21;;;;;;;6.07;3.65;;;;;;;;;;5054443;28;20049;-65
2022/09/07 05:51:47;;;;;;;6.40;4.30;;;;;;;;;;5054092;28;20043;-65
2022/09/07 05:54:12;;;;;;;8.20;4.50;;;;;;;;;;5054381;28;20100;-65
2022/09/07 05:56:38;;;;;;;5.43;4.40;;;;;;;;;;5054064;28;20557;-65
2022/09/07 05:59:03;;;;;;;7.40;3.83;;;;;;;;;;5054002;28;20021;-65
2022/09/07 06:01:29;;;;;;;6.95;3.95;;;;;;;;;;5054506;28;20461;-65
2022/09/07 06:03:54;;;;;;;6.25;3.42;;;;;;;;;;5053876;28;20389;-65
2022/09/07 06:06:20;;;;;;;5.15;3.90;;;;;;;;;;5053893;28;20112;-65
2022/09/07 06:08:47;;;;;;;7.43;4.40;;;;;;;;;;5054126;28;20055;-65
2022/09/07 06:11:15;;;;;;;7.13;4.05;;;;;;;;;;5053924;28;20113;-65
2022/09/07 06:13:41;;;;;;;5.60;4.05;;;;;;;;;;5035918;28;20491;-65
2022/09/07 06:16:07;;;;;;;7.75;4.07;;;;;;;;;;5053715;28;20040;-65
2022/09/07 06:18:34;;;;;;;5.35;3.72;;;;;;;;;;5036262;28;20400;-65
2022/09/07 06:21:03;;;;;;;6.10;3.75;;;;;;;;;;5054558;28;20031;-65
2022/09/07 06:23:29;;;;;;;6.07;4.03;;;;;;;;;;5054093;28;20021;-65
2022/09/07 06:25:54;;;;;;;4.50;3.42;;;;;;;;;;5053575;28;20100;-65
2022/09/07 06:28:25;;;;;;;7.35;4.00;;;;;;;;;;5053532;28;20041;-65
2022/09/07 06:30:50;;;;;;;9.38;4.13;;;;;;;;;;5053538;28;20131;-65
2022/09/07 06:33:16;;;;;;;7.82;4.15;;;;;;;;;;5053519;28;20029;-65
2022/09/07 06:35:41;;;;;;;6.78;3.90;;;;;;;;;;5053506;28;20114;-65
2022/09/07 06:38:07;;;;;;;6.32;3.72;;;;;;;;;;5053748;28;20028;-65
2022/09/07 06:40:33;;;;;;;5.68;3.65;;;;;;;;;;5053407;28;20037;-65
2022/09/07 06:42:59;;;;;;;6.25;4.18;;;;;;;;;;5053613;28;20025;-65
2022/09/07 06:45:36;;;;;;;8.23;4.30;;;;;;;;;;5053355;28;20404;-65
2022/09/07 06:48:05;;;;;;;6.10;4.18;;;;;;;;;;5036155;28;20029;-65
2022/09/07 06:50:31;;;;;;;10.75;5.63;;;;;;;;;;5053650;28;20067;-65
2022/09/07 06:52:56;;;;;;;24.20;11.60;;;;;;;;;;5053315;28;20116;-65
2022/09/07 06:55:22;;;;;;;12.35;7.85;;;;;;;;;;5053600;28;20100;-65
2022/09/07 06:57:50;;;;;;;27.85;12.07;;;;;;;;;;5053253;28;20033;-65
2022/09/07 07:00:16;;;;;;;6.25;4.13;;;;;;;;;;5053510;28;20025;-62
2022/09/07 07:02:41;;;;;;;6.38;4.60;;;;;;;;;;5053470;28;20415;-62
2022/09/07 07:05:07;;;;;;;5.00;3.97;;;;;;;;;;5054632;28;20469;-62
2022/09/07 07:07:33;;;;;;;7.85;4.50;;;;;;;;;;5040187;28;20037;-61
2022/09/07 07:09:58;;;;;;;6.30;4.03;;;;;;;;;;5057466;28;20017;-62
2022/09/07 07:12:23;;;;;;;5.55;3.95;;;;;;;;;;5057659;28;20052;-62
2022/09/07 07:14:48;;;;;;;8.55;4.10;;;;;;;;;;5055876;28;20460;-61
2022/09/07 07:17:14;;;;;;;8.40;4.53;;;;;;;;;;5057623;28;20040;-61
2022/09/07 07:19:39;;;;;;;6.47;4.18;;;;;;;;;;5057012;28;20444;-61
2022/09/07 07:22:05;;;;;;;11.65;7.97;;;;;;;;;;5057139;28;20033;-61
2022/09/07 07:24:30;;;;;;;8.85;4.30;;;;;;;;;;5057483;28;20020;-61
2022/09/07 07:26:55;;;;;;;4.80;4.00;;;;;;;;;;5057109;28;20071;-64
2022/09/07 07:29:27;;;;;;;6.05;3.80;;;;;;;;;;5071456;22;20061;-62
2022/09/07 07:31:52;;;;;;;3.72;3.38;;;;;;;;;;5039294;28;20040;-62
2022/09/07 07:34:18;;;;;;;4.88;3.20;;;;;;;;;;5056738;28;20377;-62
2022/09/07 07:36:43;;;;;;;7.00;3.65;;;;;;;;;;5039188;28;20036;-61
2022/09/07 07:39:08;;;;;;;8.50;3.58;;;;;;;;;;5057207;28;20044;-61
2022/09/07 07:41:34;;;;;;;5.03;3.45;;;;;;;;;;5056623;28;20070;-62
2022/09/07 07:43:59;;;;;;;4.68;3.05;;;;;;;;;;5056519;28;20100;-62
2022/09/07 07:46:25;;;;;;;5.03;3.20;;;;;;;;;;5057045;28;20070;-62
2022/09/07 07:48:51;;;;;;;8.68;3.28;;;;;;;;;;5056361;28;20017;-62
2022/09/07 07:51:17;;;;;;;5.38;3.35;;;;;;;;;;5056672;28;20428;-61
2022/09/07 07:53:43;;;;;;;5.43;3.30;;;;;;;;;;5056663;28;20087;-61
2022/09/07 07:56:09;;;;;;;5.20;3.30;;;;;;;;;;5056597;28;20162;-62
2022/09/07 07:58:35;;;;;;;6.13;3.38;;;;;;;;;;5056288;28;20100;-61
2022/09/07 08:01:02;;;;;;;4.32;3.22;;;;;;;;;;5056486;28;20120;-61
2022/09/07 08:03:28;;;;;;;4.80;3.15;;;;;;;;;;5038263;28;20028;-62
2022/09/07 08:05:54;;;;;;;6.55;3.90;;;;;;;;;;5056101;28;20354;-62
2022/09/07 08:08:19;;;;;;;5.13;3.38;;;;;;;;;;5056386;28;20346;-61
2022/09/07 08:10:46;;;;;;;6.13;3.40;;;;;;;;;;5056021;28;20431;-61
2022/09/07 08:13:13;;;;;;;4.25;3.47;;;;;;;;;;5056026;28;20060;-61
2022/09/07 08:15:44;;;;;;;2.90;2.60;;;;;;;;;;5055816;28;20035;-62
2022/09/07 08:18:13;;;;;;;3.53;3.05;;;;;;;;;;5055948;28;20033;-61
2022/09/07 08:20:39;;;;;;;3.28;2.88;;;;;;;;;;5056162;28;20033;-61
2022/09/07 08:23:06;;;;;;;7.50;3.03;;;;;;;;;;5056011;28;20039;-61
2022/09/07 08:25:31;;;;;;;4.03;2.60;;;;;;;;;;5055788;28;20414;-62
2022/09/07 08:27:57;;;;;;;2.50;2.17;;;;;;;;;;5037642;28;20076;-61
2022/09/07 08:30:22;;;;;;;4.18;2.60;;;;;;;;;;5054393;28;20036;-62
2022/09/07 08:32:48;;;;;;;4.70;2.30;;;;;;;;;;5055913;28;20100;-61
2022/09/07 08:35:13;;;;;;;2.55;2.35;;;;;;;;;;5037881;28;20112;-61
2022/09/07 08:37:38;;;;;;;3.25;2.25;;;;;;;;;;5056108;28;20025;-62
2022/09/07 08:40:04;;;;;;;5.25;2.65;;;;;;;;;;5055463;28;20451;-61
2022/09/07 08:42:50;;;;;;;3.22;2.47;;;;;;;;;;5055671;28;20029;-61
2022/09/07 08:45:24;;;;;;;3.20;2.20;;;;;;;;;;5055956;28;20055;-61
2022/09/07 08:47:51;;;;;;;2.90;2.45;;;;;;;;;;5054109;28;20078;-61
2022/09/07 08:50:22;;;;;;;3.75;2.92;;;;;;;;;;5037843;28;20051;-61
2022/09/07 08:52:53;;;;;;;2.92;2.60;;;;;;;;;;5055583;28;20099;-61
2022/09/07 08:55:19;;;;;;;4.05;2.67;;;;;;;;;;5055496;28;20029;-61
2022/09/07 08:57:49;;;;;;;3.05;2.30;;;;;;;;;;5055182;28;20500;-61
2022/09/07 09:00:15;;;;;;;;;;;;;;;;;;5055717;28;20078;-61
2022/09/07 09:02:40;;;;;;;2.40;2.17;;;;;;;;;;5055284;28;19909;-61
2022/09/07 09:05:26;;;;;;;4.18;2.45;;;;;;;;;;5037303;28;20115;-61
2022/09/07 09:08:06;;;;;;;10.32;2.78;;;;;;;;;;5055527;28;20036;-62
2022/09/07 09:10:36;;;;;;;5.50;2.60;;;;;;;;;;5055549;28;20052;-61
2022/09/07 09:13:10;;;;;;;3.03;2.70;;;;;;;;;;5054951;28;20021;-61
2022/09/07 09:15:45;;;;;;;4.57;2.28;;;;;;;;;;5055065;28;20033;-61
2022/09/07 09:18:26;;;;;;;3.17;2.55;;;;;;;;;;5069988;22;20053;-61
2022/09/07 09:20:55;;;;;;;2.45;2.20;;;;;;;;;;5053858;28;20464;-62
2022/09/07 09:23:23;;;;;;;3.97;2.40;;;;;;;;;;5054887;28;20032;-61
2022/09/07 09:25:55;;;;;;;5.25;3.00;;;;;;;;;;5054640;28;20064;-64
2022/09/07 09:28:22;;;;;;;3.75;3.00;;;;;;;;;;5036164;28;20087;-62
2022/09/07 09:30:47;;;;;;;3.40;3.10;;;;;;;;;;5054835;28;20067;-61
2022/09/07 09:33:15;;;;;;;5.80;3.05;;;;;;;;;;5054506;28;20029;-61
2022/09/07 09:35:42;;;;;;;3.13;2.35;;;;;;;;;;5037003;28;20049;-61
2022/09/07 09:38:23;;;;;;;2.85;2.08;;;;;;;;;;5054686;28;20036;-62
2022/09/07 09:40:51;;;;;;;4.32;2.90;;;;;;;;;;5053109;28;20049;-61
2022/09/07 09:43:18;;;;;;;4.97;2.80;;;;;;;;;;5054508;28;20453;-61
2022/09/07 09:45:45;;;;;;;5.75;3.22;;;;;;;;;;5054267;28;20048;-61
2022/09/07 09:48:30;;;;;;;3.95;3.00;;;;;;;;;;5054195;28;20024;-61
2022/09/07 09:50:57;;;;;;;4.68;3.10;;;;;;;;;;5054420;28;20021;-61
2022/09/07 09:53:28;;;;;;;2.85;2.58;;;;;;;;;;5053966;28;20522;-62
2022/09/07 09:55:54;;;;;;;4.85;3.03;;;;;;;;;;5054361;28;20507;-61
2022/09/07 09:58:29;;;;;;;4.25;2.80;;;;;;;;;;5053081;28;20020;-61
2022/09/07 10:01:02;;;;;;;3.42;3.08;;;;;;;;;;5054141;28;20064;-62
2022/09/07 10:03:29;;;;;;;5.60;3.10;;;;;;;;;;5054155;28;20036;-61
2022/09/07 10:05:54;;;;;;;5.35;3.22;;;;;;;;;;5036425;28;20017;-61
2022/09/07 10:08:20;;;;;;;3.67;2.70;;;;;;;;;;5054133;28;20156;-61
2022/09/07 10:10:52;;;;;;;5.50;3.83;;;;;;;;;;5054413;28;20142;-61
2022/09/07 10:13:22;;;;;;;4.68;2.63;;;;;;;;;;5053940;28;20036;-61
2022/09/07 10:15:53;;;;;;;3.50;2.80;;;;;;;;;;5053597;28;20056;-62
2022/09/07 10:18:24;;;;;;;3.08;2.42;;;;;;;;;;5053678;28;20493;-61
2022/09/07 10:20:49;;;;;;;4.47;3.08;;;;;;;;;;5053952;28;20033;-62
2022/09/07 10:23:22;;;;;;;5.93;2.65;;;;;;;;;;5053849;28;20468;-61
2022/09/07 10:25:48;;;;;;;2.67;2.38;;;;;;;;;;5053597;28;20116;-61
2022/09/07 10:28:20;;;;;;;4.63;2.80;;;;;;;;;;5053848;28;20052;-61
2022/09/07 10:30:58;;;;;;;2.85;2.60;;;;;;;;;;5054129;28;20025;-61
2022/09/07 10:33:43;;;;;;;3.30;2.67;;;;;;;;;;5036064;28;20039;-61
2022/09/07 10:36:12;;;;;;;4.03;2.53;;;;;;;;;;5053661;28;20477;-61
2022/09/07 10:38:41;;;;;;;2.92;2.60;;;;;;;;;;5053526;28;20075;-61
2022/09/07 10:41:08;;;;;;;3.72;2.70;;;;;;;;;;5052876;28;20044;-61
2022/09/07 10:43:42;;;;;;;5.15;2.78;;;;;;;;;;5053659;28;20037;-62
2022/09/07 10:46:15;;;;;;;3.58;2.92;;;;;;;;;;5035542;28;20036;-61
2022/09/07 10:48:59;;;;;;;5.85;3.00;;;;;;;;;;5053346;28;20029;-61
2022/09/07 10:51:36;;;;;;;3.13;2.53;;;;;;;;;;5053662;28;20373;-61
2022/09/07 10:54:13;;;;;;;5.63;2.90;;;;;;;;;;5053236;28;20485;-61
2022/09/07 10:56:44;;;;;;;3.83;2.53;;;;;;;;;;5053567;28;20030;-62
2022/09/07 10:59:33;;;;;;;5.20;2.85;;;;;;;;;;5053507;28;20032;-61
2022/09/07 11:02:17;;;;;;;3.38;2.67;;;;;;;;;;5008155;28;20455;-62
2022/09/07 11:04:46;;;;;;;4.00;2.97;;;;;;;;;;5053778;28;20144;-61
2022/09/07 11:07:30;;;;;;;6.18;3.13;;;;;;;;;;5053528;28;20013;-61
2022/09/07 11:10:02;;;;;;;5.00;2.92;;;;;;;;;;5053486;28;20021;-62
2022/09/07 11:12:33;;;;;;;3.85;2.55;;;;;;;;;;5053454;28;20111;-61
2022/09/07 11:15:05;;;;;;;4.05;2.75;;;;;;;;;;5053444;28;20137;-62
2022/09/07 11:17:35;;;;;;;7.53;2.88;;;;;;;;;;5035562;28;20497;-61
2022/09/07 11:20:15;;;;;;;2.90;2.63;;;;;;;;;;5053369;28;20036;-61
2022/09/07 11:22:43;;;;;;;4.50;3.10;;;;;;;;;;5035130;28;20032;-61
2022/09/07 11:25:17;;;;;;;3.17;2.47;;;;;;;;;;5053050;28;20025;-61
2022/09/07 11:27:43;;;;;;;3.03;2.70;;;;;;;;;;5053016;28;20468;-61
2022/09/07 11:30:18;;;;;;;2.78;2.50;;;;;;;;;;5053338;28;20098;-62
2022/09/07 11:32:48;;;;;;;3.67;2.65;;;;;;;;;;5053238;28;20079;-62
2022/09/07 11:35:18;;;;;;;2.45;2.15;;;;;;;;;;5052963;28;20037;-61
2022/09/07 11:37:58;;;;;;;4.53;3.10;;;;;;;;;;5053205;28;20079;-61
2022/09/07 11:40:27;;;;;;;2.92;2.53;;;;;;;;;;5053178;28;20029;-61
2022/09/07 11:43:12;;;;;;;3.33;2.50;;;;;;;;;;5053038;28;20082;-61
2022/09/07 11:45:40;;;;;;;2.47;2.28;;;;;;;;;;5053166;28;20093;-61
2022/09/07 11:48:17;;;;;;;2.97;2.67;;;;;;;;;;5053139;28;20021;-61
2022/09/07 11:50:45;;;;;;;4.70;2.72;;;;;;;;;;5053448;28;20465;-61
2022/09/07 11:53:16;;;;;;;3.75;2.58;;;;;;;;;;5056405;28;20427;-61
2022/09/07 11:55:43;;;;;;;5.25;2.78;;;;;;;;;;5038883;28;20380;-61
2022/09/07 11:58:18;;;;;;;4.07;3.20;;;;;;;;;;5056625;28;20108;-61
2022/09/07 12:00:43;;;;;;;3.42;3.10;;;;;;;;;;5056548;28;20381;-61
2022/09/07 12:03:24;;;;;;;4.30;2.95;;;;;;;;;;5055290;28;20029;-61
2022/09/07 12:05:49;;;;;;;;;;;;;;;;;;5056578;28;20044;-62
2022/09/07 12:08:33;;;;;;;7.43;3.20;;;;;;;;;;5038359;28;19905;-61
2022/09/07 12:11:01;;;;;;;3.90;3.00;;;;;;;;;;5038520;28;20719;-62
2022/09/07 12:13:36;;;;;;;5.25;3.00;;;;;;;;;;5056055;28;20047;-61
2022/09/07 12:16:16;;;;;;;3.85;3.08;;;;;;;;;;5056255;28;20028;-61
2022/09/07 12:18:44;;;;;;;6.05;3.22;;;;;;;;;;5055862;28;20128;-61
2022/09/07 12:21:28;;;;;;;6.78;3.40;;;;;;;;;;5056117;28;20082;-62
2022/09/07 12:23:54;;;;;;;6.00;3.00;;;;;;;;;;5056321;28;20069;-61
2022/09/07 12:26:32;;;;;;;4.50;2.78;;;;;;;;;;5055763;28;20049;-61
2022/09/07 12:28:57;;;;;;;3.13;2.83;;;;;;;;;;5055991;28;20376;-61
2022/09/07 12:31:41;;;;;;;3.63;3.13;;;;;;;;;;5055982;28;20021;-62
2022/09/07 12:34:46;;;;;;;3.33;2.70;;;;;;;;;;5037942;28;20043;-61
2022/09/07 12:37:30;;;;;;;2.92;2.53;;;;;;;;;;4994351;28;20030;-62
2022/09/07 12:40:13;;;;;;;4.25;3.05;;;;;;;;;;4977913;28;20038;-62
2022/09/07 12:42:39;;;;;;;4.00;2.75;;;;;;;;;;5037760;28;20191;-61
2022/09/07 12:48:08;;;;;;;4.65;3.38;;;;;;;;;;5107651;22;20045;-61
2022/09/07 12:50:36;;;;;;;7.30;3.35;;;;;;;;;;5075659;28;20464;-61
2022/09/07 12:53:19;;;;;;;3.78;3.20;;;;;;;;;;5075319;28;20540;-61
2022/09/07 12:55:52;;;;;;;4.28;3.10;;;;;;;;;;5075556;28;20036;-61
2022/09/07 12:58:20;;;;;;;3.17;2.67;;;;;;;;;;5075191;28;20547;-61
2022/09/07 13:01:04;;;;;;;4.72;3.15;;;;;;;;;;5075432;28;20476;-61
2022/09/07 13:03:47;;;;;;;2.92;2.72;;;;;;;;;;5074061;28;20089;-61
2022/09/07 13:06:22;;;;;;;2.47;2.28;;;;;;;;;;5075303;28;20074;-61
2022/09/07 13:08:47;;;;;;;3.78;3.10;;;;;;;;;;5057454;28;20421;-61
2022/09/07 13:11:18;;;;;;;5.15;3.00;;;;;;;;;;5075232;28;20028;-61
2022/09/07 13:13:58;;;;;;;3.33;3.08;;;;;;;;;;5075132;28;20480;-62
2022/09/07 13:16:25;;;;;;;3.55;2.70;;;;;;;;;;5057613;28;20071;-61
2022/09/07 13:18:50;;;;;;;4.43;3.08;;;;;;;;;;5074992;28;20437;-61
2022/09/07 13:21:17;;;;;;;2.90;2.70;;;;;;;;;;5074645;28;20059;-61
2022/09/07 13:24:05;;;;;;;5.82;2.97;;;;;;;;;;5074888;28;20479;-62
2022/09/07 13:26:51;;;;;;;5.82;2.90;;;;;;;;;;5074490;28;20074;-62
2022/09/07 13:29:20;;;;;;;3.38;3.08;;;;;;;;;;5075096;28;20067;-62
2022/09/07 13:31:51;;;;;;;5.65;3.65;;;;;;;;;;5074495;28;20024;-61
2022/09/07 13:34:36;;;;;;;4.45;3.33;;;;;;;;;;5074777;28;20024;-61
2022/09/07 13:37:05;;;;;;;5.30;2.97;;;;;;;;;;5075082;28;20468;-61
2022/09/07 13:39:39;;;;;;;4.28;3.20;;;;;;;;;;5074370;28;20052;-61
2022/09/07 13:42:05;;;;;;;3.65;3.25;;;;;;;;;;5074869;28;20029;-62
2022/09/07 13:44:31;;;;;;;4.15;3.15;;;;;;;;;;5074793;28;20015;-62
2022/09/07 13:47:03;;;;;;;4.60;3.25;;;;;;;;;;5074203;28;20028;-61
2022/09/07 13:49:52;;;;;;;3.75;3.33;;;;;;;;;;5074048;28;20037;-62
2022/09/07 13:52:20;;;;;;;5.72;3.65;;;;;;;;;;5074358;28;20112;-62
2022/09/07 13:55:03;;;;;;;5.25;3.83;;;;;;;;;;5074363;28;20020;-61
2022/09/07 13:57:47;;;;;;;6.45;3.70;;;;;;;;;;5056139;28;20400;-66
2022/09/07 14:00:14;;;;;;;3.58;3.28;;;;;;;;;;5056145;28;20054;-66
2022/09/07 14:02:39;;;;;;;5.35;3.15;;;;;;;;;;5074129;28;20070;-65
2022/09/07 14:05:07;;;;;;;4.35;3.50;;;;;;;;;;5073904;28;20033;-65
2022/09/07 14:07:32;;;;;;;2.97;2.78;;;;;;;;;;5074212;28;20021;-66
2022/09/07 14:10:04;;;;;;;3.05;2.75;;;;;;;;;;5074407;28;20032;-66
2022/09/07 14:12:30;;;;;;;3.63;3.33;;;;;;;;;;5073830;28;20037;-65
2022/09/07 14:15:13;;;;;;;4.35;3.25;;;;;;;;;;5073843;28;20025;-65
2022/09/07 14:17:39;;;;;;;4.05;3.70;;;;;;;;;;5074022;28;20036;-65
2022/09/07 14:20:05;;;;;;;4.97;3.28;;;;;;;;;;5074061;28;20021;-65
2022/09/07 14:22:32;;;;;;;3.47;2.85;;;;;;;;;;5073898;28;20464;-65
2022/09/07 14:25:00;;;;;;;4.43;3.00;;;;;;;;;;5055774;28;20020;-65
2022/09/07 14:27:25;;;;;;;16.17;9.80;;;;;;;;;;5055646;28;20170;-66
2022/09/07 14:29:51;;;;;;;8.02;5.10;;;;;;;;;;5074202;28;20062;-66
2022/09/07 14:32:19;;;;;;;24.77;15.77;;;;;;;;;;5073591;28;20512;-65
2022/09/07 14:34:45;;;;;;;6.38;5.78;;;;;;;;;;5055687;28;20095;-65
2022/09/07 14:37:16;;;;;;;7.53;5.00;;;;;;;;;;5055926;28;20558;-66
2022/09/07 14:39:47;;;;;;;4.88;3.30;;;;;;;;;;5055659;28;20033;-66
2022/09/07 14:42:12;;;;;;;;;;;;;;;;;;5073929;28;20383;-65
2022/09/07 14:44:39;;;;;;;5.40;3.72;;;;;;;;;;5089116;28;19995;-62
2022/09/07 14:47:17;;;;;;;5.97;3.10;;;;;;;;;;5072195;28;20032;-62
2022/09/07 14:49:57;;;;;;;3.90;3.10;;;;;;;;;;5072070;28;20528;-62
2022/09/07 14:52:31;;;;;;;8.48;3.45;;;;;;;;;;5055400;28;20384;-62
2022/09/07 14:54:56;;;;;;;6.82;3.67;;;;;;;;;;5073380;28;20035;-61
2022/09/07 14:57:29;;;;;;;6.55;3.53;;;;;;;;;;5055410;28;20021;-62
2022/09/07 14:59:55;;;;;;;3.50;3.15;;;;;;;;;;5072081;28;20074;-61
2022/09/07 15:02:27;;;;;;;4.40;3.58;;;;;;;;;;5073255;28;20023;-62